Ellistown, Mississippi
Current Conditions -  °F | °C
As of 10:15 PM on Wednesday 26 Nov 2014 (Local Time) from KCRX Reporting Station
Few Clouds Few Clouds  
Wind Chill: 39°   Ceiling: Unl
Heat Index: 39°   Visibility: NA
Dew Point: 34°   Wind: 3mph
Humidity: 81%   Direction: 260°W
Pressure: 30.16"   Gusts: NA
Location:  34.5651°N, 88.1896°W
Report Text: KCRX 270415Z AUTO 26003KT FEW075 04/01 A3016 RMK AO2
Loading
Personal Weather Stations






























Interactive Weather Map New forecast layout! Learn more

10-Day Weather Forecast

Advertisements
Track Severe Weather on mobile